createdAt,value
2018-08-24T00:00:56.612Z,25.05
2018-08-24T00:03:29.875Z,28.92
2018-08-24T00:06:03.171Z,20.10
2018-08-24T00:08:36.352Z,21.70
2018-08-24T00:11:09.432Z,30.50
2018-08-24T00:13:42.549Z,22.77
2018-08-24T00:16:20.194Z,22.48
2018-08-24T00:18:53.332Z,22.35
2018-08-24T00:21:26.570Z,21.05
2018-08-24T00:23:59.759Z,16.80
2018-08-24T00:26:32.945Z,18.48
2018-08-24T00:29:06.646Z,24.77
2018-08-24T00:31:40.296Z,30.55
2018-08-24T00:34:13.932Z,26.48
2018-08-24T00:36:46.947Z,24.05
2018-08-24T00:39:19.935Z,37.70
2018-08-24T00:41:53.120Z,37.67
2018-08-24T00:44:26.159Z,26.35
2018-08-24T00:46:59.165Z,25.72
2018-08-24T00:49:32.338Z,17.98
2018-08-24T00:52:17.606Z,20.10
2018-08-24T00:54:50.544Z,21.87
2018-08-24T00:57:23.526Z,22.07
2018-08-24T00:59:56.499Z,22.10
2018-08-24T01:02:29.775Z,24.47
2018-08-24T01:05:02.951Z,24.70
2018-08-24T01:07:41.882Z,25.68
2018-08-24T01:10:20.521Z,17.95
2018-08-24T01:12:54.047Z,27.40
2018-08-24T01:15:32.776Z,24.52
2018-08-24T01:18:11.528Z,21.50
2018-08-24T01:20:50.065Z,18.90
2018-08-24T01:23:24.427Z,17.55
2018-08-24T01:25:57.628Z,20.80
2018-08-24T01:28:31.216Z,16.80
2018-08-24T01:31:06.764Z,22.77
2018-08-24T01:33:39.836Z,16.15
2018-08-24T01:36:13.184Z,19.67
2018-08-24T01:38:46.531Z,21.73
2018-08-24T01:41:19.532Z,29.80
2018-08-24T01:43:52.616Z,24.72
2018-08-24T01:46:25.847Z,19.10
2018-08-24T01:48:59.002Z,27.25
2018-08-24T01:51:32.102Z,22.07
2018-08-24T01:54:05.079Z,18.92
2018-08-24T01:56:38.143Z,22.55
2018-08-24T01:59:12.136Z,21.45
2018-08-24T02:01:45.184Z,21.42
2018-08-24T02:04:18.354Z,41.20
2018-08-24T02:06:51.471Z,26.20
2018-08-24T02:09:24.449Z,25.52
2018-08-24T02:11:57.659Z,30.48
2018-08-24T02:14:36.631Z,39.00
2018-08-24T02:17:15.339Z,36.80
2018-08-24T02:19:54.221Z,66.53
2018-08-24T02:22:27.223Z,63.95
2018-08-24T02:25:00.243Z,91.10
2018-08-24T02:27:33.300Z,97.97
2018-08-24T02:30:06.596Z,127.38
2018-08-24T02:32:39.732Z,111.12
2018-08-24T02:35:12.784Z,127.75
2018-08-24T02:37:47.668Z,134.40
2018-08-24T02:40:20.840Z,128.45
2018-08-24T02:42:54.017Z,134.72
2018-08-24T02:45:27.329Z,149.20
2018-08-24T02:48:00.341Z,135.52
2018-08-24T02:50:33.468Z,120.00
2018-08-24T02:53:06.605Z,117.55
2018-08-24T02:55:39.839Z,117.10
2018-08-24T02:58:13.011Z,87.00
2018-08-24T03:00:46.844Z,73.80
2018-08-24T03:03:19.888Z,69.87
2018-08-24T03:05:53.109Z,69.25
2018-08-24T03:08:26.312Z,65.28
2018-08-24T03:10:59.461Z,58.90
2018-08-24T03:13:32.609Z,58.00
2018-08-24T03:16:06.399Z,59.98
2018-08-24T03:18:39.341Z,56.88
2018-08-24T03:21:12.514Z,58.17
2018-08-24T03:23:45.858Z,56.68
2018-08-24T03:26:18.880Z,62.35
2018-08-24T03:28:52.058Z,54.65
2018-08-24T03:31:25.091Z,55.15
2018-08-24T03:33:58.690Z,63.40
2018-08-24T03:36:31.604Z,53.52
2018-08-24T03:39:06.565Z,53.35
2018-08-24T03:41:39.587Z,54.80
2018-08-24T03:44:12.751Z,54.13
2018-08-24T03:46:45.775Z,61.33
2018-08-24T03:49:18.855Z,43.98
2018-08-24T03:51:51.839Z,48.95
2018-08-24T03:54:24.869Z,42.67
2018-08-24T03:56:58.769Z,49.60
2018-08-24T03:59:31.940Z,41.65
2018-08-24T04:02:07.918Z,39.20
2018-08-24T04:04:41.211Z,39.48
2018-08-24T04:07:14.223Z,37.28
2018-08-24T04:09:47.419Z,37.95
2018-08-24T04:12:20.393Z,38.85
2018-08-24T04:14:53.468Z,30.40
2018-08-24T04:17:32.309Z,31.97
2018-08-24T04:20:05.333Z,40.33
2018-08-24T04:22:38.332Z,32.48
2018-08-24T04:25:11.458Z,39.50
2018-08-24T04:27:44.438Z,35.28
2018-08-24T04:30:17.513Z,32.08
2018-08-24T04:32:50.629Z,32.58
2018-08-24T04:35:23.912Z,30.88
2018-08-24T04:37:58.067Z,34.88
2018-08-24T04:40:31.207Z,37.83
2018-08-24T04:43:04.126Z,32.10
2018-08-24T04:45:37.439Z,28.27
2018-08-24T04:48:10.547Z,28.07
2018-08-24T04:50:43.539Z,28.40
2018-08-24T04:53:16.589Z,30.00
2018-08-24T04:55:49.774Z,27.35
2018-08-24T04:58:22.929Z,28.62
2018-08-24T05:00:56.151Z,30.85
2018-08-24T05:03:29.242Z,25.48
2018-08-24T05:06:02.338Z,32.73
2018-08-24T05:08:35.414Z,26.75
2018-08-24T05:11:08.518Z,30.40
2018-08-24T05:13:41.577Z,29.05
2018-08-24T05:16:14.683Z,28.55
2018-08-24T05:18:47.811Z,30.50
2018-08-24T05:21:20.741Z,30.02
2018-08-24T05:23:53.768Z,35.30
2018-08-24T05:26:26.726Z,27.48
2018-08-24T05:28:59.927Z,29.90
2018-08-24T05:31:32.967Z,30.95
2018-08-24T05:34:06.051Z,38.58
2018-08-24T05:36:39.184Z,35.80
2018-08-24T05:39:12.237Z,30.62
2018-08-24T05:41:46.020Z,31.75
2018-08-24T05:44:18.970Z,32.42
2018-08-24T05:46:51.990Z,36.17
2018-08-24T05:49:25.244Z,28.80
2018-08-24T05:51:58.605Z,33.67
2018-08-24T05:54:31.598Z,28.10
2018-08-24T05:57:04.585Z,35.85
2018-08-24T05:59:37.788Z,27.60
2018-08-24T06:02:10.899Z,30.25
2018-08-24T06:04:43.936Z,33.18
2018-08-24T06:07:16.975Z,30.92
2018-08-24T06:09:50.163Z,38.10
2018-08-24T06:12:23.392Z,34.13
2018-08-24T06:14:57.155Z,36.40
2018-08-24T06:17:36.058Z,35.55
2018-08-24T06:20:08.972Z,31.48
2018-08-24T06:22:42.084Z,33.90
2018-08-24T06:25:15.437Z,33.85
2018-08-24T06:27:48.522Z,33.55
2018-08-24T06:30:21.699Z,31.12
2018-08-24T06:32:54.843Z,40.00
2018-08-24T06:35:27.927Z,32.83
2018-08-24T06:38:01.075Z,34.88
2018-08-24T06:40:34.063Z,33.38
2018-08-24T06:43:07.196Z,35.98
2018-08-24T06:45:40.305Z,25.82
2018-08-24T06:48:13.606Z,29.72
2018-08-24T06:50:46.604Z,25.82
2018-08-24T06:53:19.701Z,26.52
2018-08-24T06:55:52.593Z,24.18
2018-08-24T06:58:25.673Z,27.30
2018-08-24T07:00:58.691Z,30.50
2018-08-24T07:03:31.708Z,25.45
2018-08-24T07:06:04.760Z,26.50
2018-08-24T07:08:37.848Z,30.57
2018-08-24T07:11:15.705Z,24.60
2018-08-24T07:13:49.695Z,24.80
2018-08-24T07:16:22.997Z,27.55
2018-08-24T07:18:56.177Z,25.27
2018-08-24T07:21:29.317Z,27.32
2018-08-24T07:24:02.317Z,33.50
2018-08-24T07:26:35.469Z,23.52
2018-08-24T07:29:08.660Z,20.75
2018-08-24T07:31:41.829Z,21.15
2018-08-24T07:34:15.052Z,20.92
2018-08-24T07:36:48.163Z,28.02
2018-08-24T07:39:21.144Z,22.98
2018-08-24T07:41:54.356Z,21.17
2018-08-24T07:44:37.047Z,15.90
2018-08-24T07:47:10.285Z,23.60
2018-08-24T07:49:43.545Z,20.95
2018-08-24T07:52:16.626Z,20.40
2018-08-24T07:54:52.478Z,21.07
2018-08-24T07:57:25.815Z,20.57
2018-08-24T07:59:58.952Z,23.80
2018-08-24T08:02:49.836Z,20.80
2018-08-24T08:05:22.985Z,30.90
2018-08-24T08:07:56.035Z,28.15
2018-08-24T08:10:34.684Z,19.90
2018-08-24T08:13:09.218Z,22.27
2018-08-24T08:15:43.516Z,17.37
2018-08-24T08:18:17.076Z,26.35
2018-08-24T08:20:50.036Z,17.23
2018-08-24T08:23:23.141Z,25.88
2018-08-24T08:25:56.380Z,25.48
2018-08-24T08:28:29.487Z,29.82
2018-08-24T08:31:02.516Z,21.87
2018-08-24T08:33:35.497Z,21.02
2018-08-24T08:36:08.618Z,21.25
2018-08-24T08:38:41.850Z,18.98
2018-08-24T08:41:15.043Z,18.35
2018-08-24T08:43:48.271Z,20.70
2018-08-24T08:46:21.667Z,23.32
2018-08-24T08:48:54.767Z,22.25
2018-08-24T08:51:27.759Z,17.92
2018-08-24T08:54:00.789Z,19.25
2018-08-24T08:56:34.049Z,30.45
2018-08-24T08:59:07.650Z,19.40
2018-08-24T09:01:40.640Z,14.40
2018-08-24T09:04:13.753Z,14.05
2018-08-24T09:06:47.029Z,16.20
2018-08-24T09:09:20.248Z,16.02
2018-08-24T09:11:53.374Z,16.67
2018-08-24T09:14:26.491Z,15.30
2018-08-24T09:17:04.252Z,18.67
2018-08-24T09:19:43.223Z,15.58
2018-08-24T09:22:22.046Z,14.63
2018-08-24T09:25:00.988Z,19.00
2018-08-24T09:27:38.724Z,14.05
2018-08-24T09:30:11.687Z,16.67
2018-08-24T09:32:44.785Z,22.73
2018-08-24T09:35:18.009Z,21.05
2018-08-24T09:37:51.177Z,14.13
2018-08-24T09:40:30.087Z,19.10
2018-08-24T09:43:08.975Z,16.15
2018-08-24T09:45:41.932Z,11.35
2018-08-24T09:48:20.963Z,10.13
2018-08-24T09:50:59.859Z,18.50
2018-08-24T09:53:38.627Z,13.95
2018-08-24T09:56:11.663Z,12.13
2018-08-24T09:58:44.888Z,13.38
2018-08-24T10:01:23.792Z,13.40
2018-08-24T10:04:02.440Z,13.60
2018-08-24T10:06:41.160Z,17.20
2018-08-24T10:09:15.040Z,14.10
2018-08-24T10:11:48.151Z,14.15
2018-08-24T10:14:21.249Z,13.40
2018-08-24T10:16:54.559Z,11.40
2018-08-24T10:19:27.736Z,13.20
2018-08-24T10:22:00.726Z,15.03
2018-08-24T10:24:33.927Z,8.55
2018-08-24T10:27:06.892Z,13.60
2018-08-24T10:29:40.017Z,13.28
2018-08-24T10:32:13.143Z,16.35
2018-08-24T10:34:46.365Z,11.90
2018-08-24T10:37:19.606Z,12.73
2018-08-24T10:39:53.350Z,12.65
2018-08-24T10:42:26.523Z,12.73
2018-08-24T10:44:59.613Z,17.52
2018-08-24T10:47:32.558Z,14.00
2018-08-24T10:50:05.821Z,14.23
2018-08-24T10:52:38.882Z,14.63
2018-08-24T10:55:12.055Z,16.48
2018-08-24T10:57:45.021Z,14.73
2018-08-24T11:00:17.995Z,13.80
2018-08-24T11:02:51.173Z,12.68
2018-08-24T11:05:24.357Z,13.13
2018-08-24T11:07:57.550Z,15.55
2018-08-24T11:10:30.751Z,26.62
2018-08-24T11:13:03.837Z,21.57
2018-08-24T11:15:36.821Z,18.45
2018-08-24T11:18:10.594Z,13.62
2018-08-24T11:20:43.628Z,18.70
2018-08-24T11:23:16.604Z,25.82
2018-08-24T11:25:49.632Z,23.98
2018-08-24T11:28:22.738Z,16.48
2018-08-24T11:30:55.794Z,22.42
2018-08-24T11:33:28.959Z,18.65
2018-08-24T11:36:02.191Z,18.45
2018-08-24T11:38:35.363Z,22.30
2018-08-24T11:41:08.541Z,19.57
2018-08-24T11:43:41.743Z,19.77
2018-08-24T11:46:14.744Z,19.27
2018-08-24T11:48:47.912Z,20.92
2018-08-24T11:51:20.987Z,26.05
2018-08-24T11:53:53.941Z,21.68
2018-08-24T11:56:27.160Z,17.02
2018-08-24T11:59:00.343Z,19.32
2018-08-24T12:01:33.412Z,21.68
2018-08-24T12:04:06.724Z,23.22
2018-08-24T12:06:43.884Z,24.50
2018-08-24T12:09:18.813Z,16.00
2018-08-24T12:11:51.858Z,20.50
2018-08-24T12:14:25.263Z,14.87
2018-08-24T12:16:58.734Z,21.70
2018-08-24T12:19:31.987Z,20.32
2018-08-24T12:22:05.056Z,30.65
2018-08-24T12:24:38.116Z,20.57
2018-08-24T12:27:11.167Z,21.57
2018-08-24T12:29:44.325Z,20.02
2018-08-24T12:32:17.563Z,20.10
2018-08-24T12:34:50.813Z,20.30
2018-08-24T12:37:24.358Z,25.45
2018-08-24T12:39:57.635Z,20.60
2018-08-24T12:42:30.836Z,31.00
2018-08-24T12:45:04.012Z,18.00
2018-08-24T12:47:37.270Z,24.20
2018-08-24T12:50:10.482Z,21.15
2018-08-24T12:52:43.555Z,19.42
2018-08-24T12:55:16.648Z,19.40
2018-08-24T12:57:49.756Z,20.27
2018-08-24T13:00:22.914Z,17.65
2018-08-24T13:02:56.091Z,19.65
2018-08-24T13:05:29.183Z,19.85
2018-08-24T13:08:02.242Z,27.40
2018-08-24T13:10:35.329Z,19.27
2018-08-24T13:13:08.345Z,31.02
2018-08-24T13:15:41.392Z,24.87
2018-08-24T13:18:14.517Z,24.63
2018-08-24T13:20:47.594Z,26.02
2018-08-24T13:23:20.815Z,26.37
2018-08-24T13:25:54.009Z,30.17
2018-08-24T13:28:26.999Z,37.53
2018-08-24T13:31:00.050Z,37.67
2018-08-24T13:33:33.074Z,31.23
2018-08-24T13:36:07.393Z,29.20
2018-08-24T13:38:40.491Z,38.65
2018-08-24T13:41:13.484Z,21.73
2018-08-24T13:43:46.714Z,22.60
2018-08-24T13:46:21.155Z,37.98
2018-08-24T13:48:54.338Z,22.50
2018-08-24T13:51:27.574Z,24.37
2018-08-24T13:54:00.851Z,31.20
2018-08-24T13:56:33.953Z,42.78
2018-08-24T13:59:07.249Z,35.55
2018-08-24T14:01:40.399Z,27.62
2018-08-24T14:09:10.439Z,24.50
2018-08-24T14:11:44.066Z,28.27
2018-08-24T14:14:17.149Z,31.30
2018-08-24T14:16:50.412Z,32.13
2018-08-24T14:19:23.554Z,29.65
2018-08-24T14:21:56.617Z,37.23
2018-08-24T14:24:29.612Z,35.80
2018-08-24T14:27:02.813Z,38.78
2018-08-24T14:29:35.837Z,38.38
2018-08-24T14:32:08.919Z,31.10
2018-08-24T14:34:42.068Z,30.72
2018-08-24T14:37:15.167Z,33.35
2018-08-24T14:44:41.349Z,16.23
2018-08-24T14:47:14.660Z,19.15
2018-08-24T14:49:47.929Z,23.02
2018-08-24T14:52:21.104Z,17.73
2018-08-24T14:54:54.142Z,18.85
2018-08-24T14:57:27.320Z,19.32
2018-08-24T15:00:00.411Z,21.45
2018-08-24T15:02:33.584Z,19.98
2018-08-24T15:05:08.518Z,20.95
2018-08-24T15:07:41.498Z,22.27
2018-08-24T15:10:14.507Z,16.48
2018-08-24T15:12:47.617Z,20.65
2018-08-24T15:15:20.667Z,20.68
2018-08-24T15:17:53.699Z,18.85
2018-08-24T15:20:26.926Z,20.85
2018-08-24T15:23:00.041Z,21.85
2018-08-24T15:25:33.262Z,24.20
2018-08-24T15:28:06.258Z,20.10
2018-08-24T15:30:39.299Z,21.10
2018-08-24T15:33:12.489Z,26.85
2018-08-24T15:35:45.463Z,20.20
2018-08-24T15:38:18.584Z,18.70
2018-08-24T15:40:51.770Z,18.45
2018-08-24T15:43:24.816Z,24.10
2018-08-24T15:45:57.759Z,19.85
2018-08-24T15:48:31.084Z,17.45
2018-08-24T15:51:04.298Z,22.82
2018-08-24T15:53:37.427Z,21.85
2018-08-24T15:56:10.491Z,19.30
2018-08-24T15:58:43.670Z,20.60
2018-08-24T16:01:16.681Z,20.37
2018-08-24T16:03:50.675Z,15.45
2018-08-24T16:06:23.613Z,20.35
2018-08-24T16:08:56.606Z,17.52
2018-08-24T16:11:29.749Z,22.45
2018-08-24T16:14:02.737Z,23.42
2018-08-24T16:16:35.982Z,17.15
2018-08-24T16:19:09.137Z,17.27
2018-08-24T16:21:42.207Z,16.93
2018-08-24T16:24:15.617Z,17.75
2018-08-24T16:26:48.837Z,15.85
2018-08-24T16:29:21.884Z,18.02
2018-08-24T16:31:54.982Z,16.12
2018-08-24T16:34:28.202Z,13.32
2018-08-24T16:37:01.512Z,21.90
2018-08-24T16:39:34.661Z,19.90
2018-08-24T16:42:07.723Z,17.00
2018-08-24T16:44:40.851Z,19.98
2018-08-24T16:47:13.988Z,17.60
2018-08-24T16:49:46.997Z,19.60
2018-08-24T16:52:20.035Z,16.35
2018-08-24T16:54:53.155Z,21.23
2018-08-24T16:57:26.155Z,15.85
2018-08-24T16:59:59.210Z,22.00
2018-08-24T17:02:32.346Z,27.98
2018-08-24T17:05:05.847Z,23.85
2018-08-24T17:07:38.866Z,17.50
2018-08-24T17:10:11.929Z,17.90
2018-08-24T17:12:45.121Z,14.98
2018-08-24T17:15:18.155Z,19.60
2018-08-24T17:17:51.345Z,17.90
2018-08-24T17:20:24.765Z,17.48
2018-08-24T17:22:59.045Z,18.17
2018-08-24T17:25:32.080Z,29.72
2018-08-24T17:28:05.424Z,36.28
2018-08-24T17:30:38.573Z,39.45
2018-08-24T17:33:11.704Z,41.95
2018-08-24T17:35:44.719Z,27.17
2018-08-24T17:38:17.802Z,16.37
2018-08-24T17:40:50.824Z,19.62
2018-08-24T17:43:23.863Z,20.62
2018-08-24T17:45:57.153Z,17.57
2018-08-24T17:48:30.190Z,22.95
2018-08-24T17:51:03.221Z,20.37
2018-08-24T17:53:36.422Z,18.27
2018-08-24T17:56:09.537Z,19.20
2018-08-24T17:58:42.835Z,22.90
2018-08-24T18:01:15.957Z,19.10
2018-08-24T18:03:49.123Z,19.30
2018-08-24T18:06:22.277Z,18.57
2018-08-24T18:08:55.560Z,22.15
2018-08-24T18:11:28.578Z,14.83
2018-08-24T18:14:01.814Z,17.80
2018-08-24T18:16:34.913Z,16.37
2018-08-24T18:19:08.065Z,16.40
2018-08-24T18:21:41.160Z,16.82
2018-08-24T18:24:14.173Z,16.77
2018-08-24T18:26:47.304Z,14.25
2018-08-24T18:29:20.480Z,19.75
2018-08-24T18:31:53.570Z,17.50
2018-08-24T18:34:26.688Z,8.18
2018-08-24T18:36:59.809Z,10.05
2018-08-24T18:39:32.920Z,12.35
2018-08-24T18:42:06.350Z,12.47
2018-08-24T18:44:39.674Z,10.53
2018-08-24T18:47:15.076Z,8.85
2018-08-24T18:49:48.258Z,18.77
2018-08-24T18:52:21.469Z,10.15
2018-08-24T18:54:54.592Z,25.25
2018-08-24T18:57:27.675Z,8.28
2018-08-24T19:00:00.869Z,24.35
2018-08-24T19:02:34.982Z,17.87
2018-08-24T19:05:08.734Z,35.08
2018-08-24T19:07:42.443Z,13.40
2018-08-24T19:10:15.970Z,32.20
2018-08-24T19:12:49.923Z,12.53
2018-08-24T19:15:24.537Z,45.50
2018-08-24T19:18:05.792Z,15.98
2018-08-24T19:20:46.302Z,11.33
2018-08-24T19:23:19.804Z,12.40
2018-08-24T19:25:54.116Z,14.18
2018-08-24T19:28:33.503Z,33.73
2018-08-24T19:31:07.010Z,15.65
2018-08-24T19:33:40.966Z,42.45
2018-08-24T19:36:15.411Z,12.30
2018-08-24T19:38:48.479Z,19.80
2018-08-24T19:41:27.475Z,14.58
2018-08-24T19:44:00.592Z,20.75
2018-08-24T19:46:33.843Z,16.48
2018-08-24T19:49:12.895Z,15.43
2018-08-24T19:51:46.061Z,16.77
2018-08-24T19:54:19.357Z,13.32
2018-08-24T19:56:52.327Z,14.07
2018-08-24T19:59:25.814Z,18.17
2018-08-24T20:02:00.591Z,9.33
2018-08-24T20:04:33.796Z,11.97
2018-08-24T20:07:12.658Z,40.33
2018-08-24T20:09:52.376Z,7.67
2018-08-24T20:12:26.413Z,14.28
2018-08-24T20:15:06.210Z,10.20
2018-08-24T20:17:39.926Z,9.85
2018-08-24T20:20:13.885Z,19.42
2018-08-24T20:22:47.677Z,9.88
2018-08-24T20:25:36.264Z,26.60
2018-08-24T20:28:23.826Z,12.25
2018-08-24T20:30:58.738Z,9.88
2018-08-24T20:33:32.877Z,40.98
2018-08-24T20:36:06.560Z,8.10
2018-08-24T20:38:40.115Z,28.55
2018-08-24T20:41:13.563Z,7.92
2018-08-24T20:43:47.305Z,9.68
2018-08-24T20:46:20.862Z,7.60
2018-08-24T20:48:55.222Z,11.33
2018-08-24T20:51:29.092Z,10.70
2018-08-24T20:54:02.879Z,9.68
2018-08-24T20:56:37.349Z,44.27
2018-08-24T20:59:11.056Z,8.25
2018-08-24T21:04:43.440Z,30.32
2018-08-24T21:07:17.137Z,9.48
2018-08-24T21:09:51.499Z,21.50
2018-08-24T21:12:25.875Z,9.50
2018-08-24T21:14:59.807Z,8.45
2018-08-24T21:17:34.273Z,10.08
2018-08-24T21:20:08.685Z,11.95
2018-08-24T21:22:42.430Z,9.48
2018-08-24T21:25:16.279Z,9.63
2018-08-24T21:27:49.905Z,8.63
2018-08-24T21:30:23.661Z,8.43
2018-08-24T21:32:57.169Z,11.30
2018-08-24T21:35:31.499Z,36.73
2018-08-24T21:38:05.672Z,8.75
2018-08-24T21:40:41.410Z,11.12
2018-08-24T21:43:15.634Z,10.88
2018-08-24T21:45:49.549Z,6.92
2018-08-24T21:51:22.878Z,13.85
2018-08-24T21:53:56.487Z,9.48
2018-08-24T21:56:30.444Z,9.53
2018-08-24T21:59:04.268Z,6.40
2018-08-24T22:01:38.469Z,5.25
2018-08-24T22:04:12.185Z,7.42
2018-08-24T22:06:45.884Z,8.88
2018-08-24T22:09:20.316Z,5.72
2018-08-24T22:11:54.215Z,9.75
2018-08-24T22:14:27.918Z,5.95
2018-08-24T22:17:04.284Z,18.23
2018-08-24T22:19:38.686Z,9.05
2018-08-24T22:22:13.484Z,11.60
2018-08-24T22:24:47.165Z,9.83
2018-08-24T22:27:21.037Z,19.37
2018-08-24T22:29:55.419Z,8.08
2018-08-24T22:32:29.249Z,7.35
2018-08-24T22:35:02.943Z,8.10
2018-08-24T22:37:37.434Z,8.78
2018-08-24T22:40:11.456Z,8.10
2018-08-24T22:42:45.199Z,7.05
2018-08-24T22:45:18.832Z,6.72
2018-08-24T22:47:54.492Z,6.53
2018-08-24T22:50:28.049Z,6.65
2018-08-24T22:53:02.712Z,7.70
2018-08-24T22:55:36.853Z,12.33
2018-08-24T22:58:10.732Z,4.37
2018-08-24T23:00:45.268Z,16.05
2018-08-24T23:03:18.906Z,5.22
2018-08-24T23:05:52.587Z,16.50
2018-08-24T23:08:26.346Z,8.75
2018-08-24T23:10:59.980Z,11.77
2018-08-24T23:13:33.682Z,7.33
2018-08-24T23:16:07.837Z,20.27
2018-08-24T23:18:55.368Z,2.98
2018-08-24T23:21:29.810Z,5.65
2018-08-24T23:24:03.464Z,16.27
2018-08-24T23:26:38.217Z,8.78
2018-08-24T23:29:11.897Z,21.50
2018-08-24T23:31:45.835Z,5.28
2018-08-24T23:34:19.664Z,14.25
2018-08-24T23:36:53.477Z,8.35
2018-08-24T23:39:27.253Z,16.48
2018-08-24T23:42:00.850Z,6.83
2018-08-24T23:44:34.622Z,17.35
2018-08-24T23:47:08.565Z,7.03
2018-08-24T23:49:42.398Z,12.53
2018-08-24T23:52:16.237Z,4.42
2018-08-24T23:54:49.790Z,5.45
2018-08-24T23:57:24.530Z,4.75
2018-08-24T23:59:58.177Z,6.67
